Time;durP1;ratioP1;P1;durP2;ratioP2;P2;SDS_P1;SDS_P2;PMS_P1;PMS_P2;Temp;Humidity;BMP_temperature;BMP_pressure;BME280_temperature;BME280_humidity;BME280_pressure;Samples;Min_cycle;Max_cycle;Signal;HPM_P1;HPM_P2
2021/12/06 00:00:58;;;;;;;2.17;1.40;;;6.50;99.90;;;;;;5015725;28;20482;-78
2021/12/06 00:03:37;;;;;;;1.50;1.40;;;6.50;99.90;;;;;;5033379;28;20033;-78
2021/12/06 00:06:04;;;;;;;1.67;1.52;;;6.50;99.90;;;;;;5033429;28;20018;-78
2021/12/06 00:08:30;;;;;;;1.50;1.40;;;6.60;99.90;;;;;;5033002;28;20072;-78
2021/12/06 00:10:56;;;;;;;1.40;1.30;;;6.60;99.90;;;;;;5033423;28;20025;-79
2021/12/06 00:13:23;;;;;;;1.60;1.50;;;6.60;99.90;;;;;;5032985;28;20367;-78
2021/12/06 00:15:50;;;;;;;1.77;1.67;;;6.60;99.90;;;;;;5033293;28;20026;-78
2021/12/06 00:18:18;;;;;;;1.15;1.13;;;6.60;99.90;;;;;;5032414;28;20087;-78
2021/12/06 00:20:45;;;;;;;1.33;1.10;;;6.60;99.90;;;;;;5051332;28;20083;-78
2021/12/06 00:23:11;;;;;;;1.40;1.30;;;6.70;99.90;;;;;;5035340;28;20068;-78
2021/12/06 00:25:37;;;;;;;2.10;1.30;;;6.70;99.90;;;;;;5053109;28;20504;-78
2021/12/06 00:28:03;;;;;;;1.35;1.25;;;6.60;99.90;;;;;;5053087;28;20052;-79
2021/12/06 00:30:29;;;;;;;1.50;1.40;;;6.70;99.90;;;;;;5035206;28;20021;-78
2021/12/06 00:32:55;;;;;;;2.45;1.70;;;6.70;99.90;;;;;;5052727;28;20043;-78
2021/12/06 00:35:23;;;;;;;1.77;1.48;;;6.60;99.90;;;;;;5053064;28;20028;-78
2021/12/06 00:38:00;;;;;;;2.03;1.65;;;6.60;99.90;;;;;;5052340;28;20078;-78
2021/12/06 00:40:33;;;;;;;1.10;1.02;;;6.60;99.90;;;;;;5052541;28;20462;-78
2021/12/06 00:43:00;;;;;;;1.77;1.45;;;6.60;99.90;;;;;;5052489;28;20149;-78
2021/12/06 00:45:26;;;;;;;1.85;1.58;;;6.60;99.90;;;;;;5052751;28;20083;-78
2021/12/06 00:47:53;;;;;;;1.40;1.30;;;6.60;99.90;;;;;;5038626;28;20049;-78
2021/12/06 00:50:21;;;;;;;1.98;1.63;;;6.60;99.90;;;;;;5032902;28;20091;-78
2021/12/06 00:52:48;;;;;;;1.58;1.30;;;6.60;99.90;;;;;;5032752;28;20036;-78
2021/12/06 00:55:14;;;;;;;1.98;1.50;;;6.50;99.90;;;;;;5015962;28;20033;-78
2021/12/06 00:57:40;;;;;;;2.42;1.70;;;6.60;99.90;;;;;;5032706;28;20057;-78
2021/12/06 01:00:14;;;;;;;2.13;1.60;;;6.50;99.90;;;;;;5032966;28;20029;-78
2021/12/06 01:02:42;;;;;;;1.50;1.40;;;6.60;99.90;;;;;;5032713;28;20029;-78
2021/12/06 01:05:09;;;;;;;2.35;1.38;;;6.60;99.90;;;;;;5032776;28;20116;-78
2021/12/06 01:07:35;;;;;;;2.53;1.33;;;6.60;99.90;;;;;;5032247;28;20063;-78
2021/12/06 01:10:00;;;;;;;1.50;1.40;;;6.60;99.90;;;;;;5032415;28;20033;-78
2021/12/06 01:12:26;;;;;;;1.30;1.20;;;6.60;99.90;;;;;;5030983;28;20029;-78
2021/12/06 01:14:52;;;;;;;1.45;1.35;;;6.50;99.90;;;;;;5031550;28;20028;-77
2021/12/06 01:17:18;;;;;;;1.40;1.30;;;6.60;99.90;;;;;;5033693;28;20028;-78
2021/12/06 01:19:44;;;;;;;1.30;1.20;;;6.50;99.90;;;;;;5032440;28;20044;-78
2021/12/06 01:22:51;;;;;;;1.55;1.40;;;6.50;99.90;;;;;;5032689;28;20025;-78
2021/12/06 01:25:14;;;;;;;2.42;1.42;;;6.40;99.90;;;;;;5029210;28;20045;-78
2021/12/06 01:41:04;;;;;;;1.10;1.10;;;6.50;99.90;;;;;;5036552;28;20489;-78
2021/12/06 01:43:30;;;;;;;1.45;1.35;;;6.60;99.90;;;;;;5036130;28;20057;-78
2021/12/06 01:45:55;;;;;;;1.50;1.40;;;6.60;99.90;;;;;;5053570;28;20055;-78
2021/12/06 01:48:21;;;;;;;1.33;1.20;;;6.60;99.90;;;;;;5037146;28;20028;-78
2021/12/06 01:50:47;;;;;;;1.55;1.45;;;6.60;99.90;;;;;;5056144;28;20036;-78
2021/12/06 01:53:13;;;;;;;1.65;1.55;;;6.70;99.90;;;;;;5037877;28;20087;-78
2021/12/06 01:55:39;;;;;;;1.83;1.67;;;6.80;99.90;;;;;;5054137;28;20489;-78
2021/12/06 01:58:07;;;;;;;1.33;1.23;;;6.70;99.90;;;;;;5055597;28;20021;-78
2021/12/06 02:00:39;;;;;;;1.40;1.30;;;6.70;99.90;;;;;;5055823;28;20478;-78
2021/12/06 02:03:05;;;;;;;1.35;1.25;;;6.70;99.90;;;;;;5037712;28;20040;-78
2021/12/06 02:05:32;;;;;;;1.33;1.23;;;6.60;99.90;;;;;;5035901;28;20087;-78
2021/12/06 02:07:58;;;;;;;1.75;1.60;;;6.70;99.90;;;;;;5035707;28;20026;-79
2021/12/06 02:10:24;;;;;;;1.23;1.17;;;6.70;99.90;;;;;;5026380;28;20112;-78
2021/12/06 02:12:53;;;;;;;1.40;1.30;;;6.70;99.90;;;;;;5037678;28;20029;-78
2021/12/06 02:18:08;;;;;;;1.40;1.30;;;6.60;99.90;;;;;;5055576;28;20075;-78
2021/12/06 02:20:43;;;;;;;1.45;1.17;;;6.60;99.90;;;;;;5037558;28;20393;-77
2021/12/06 02:23:09;;;;;;;1.30;1.20;;;6.60;99.90;;;;;;5055662;28;20036;-78
2021/12/06 02:25:35;;;;;;;1.38;1.27;;;6.60;99.90;;;;;;5055634;28;20033;-77
2021/12/06 02:28:01;;;;;;;2.17;1.33;;;6.60;99.90;;;;;;5055270;28;20040;-78
2021/12/06 02:30:26;;;;;;;1.48;1.38;;;6.60;99.90;;;;;;5055312;28;20029;-78
2021/12/06 02:32:52;;;;;;;1.40;1.30;;;6.50;99.90;;;;;;5055194;28;20024;-78
2021/12/06 02:35:21;;;;;;;1.08;1.00;;;6.50;99.90;;;;;;5054840;28;20021;-78
2021/12/06 02:37:48;;;;;;;1.00;1.00;;;6.50;99.90;;;;;;5037478;28;20017;-78
2021/12/06 02:40:23;;;;;;;1.45;1.15;;;6.50;99.90;;;;;;5046534;28;20025;-79
2021/12/06 02:42:49;;;;;;;2.05;1.20;;;6.50;99.90;;;;;;5034836;28;20108;-78
2021/12/06 02:45:19;;;;;;;1.10;1.02;;;6.50;99.90;;;;;;5017477;28;20116;-78
2021/12/06 02:47:48;;;;;;;1.48;1.20;;;6.60;99.90;;;;;;5034798;28;20032;-78
2021/12/06 02:50:14;;;;;;;2.92;1.60;;;6.60;99.90;;;;;;5034846;28;20025;-78
2021/12/06 02:52:40;;;;;;;1.17;1.10;;;6.60;99.90;;;;;;5034285;28;20071;-78
2021/12/06 02:55:28;;;;;;;2.92;1.25;;;6.50;99.90;;;;;;5035492;28;20112;-78
2021/12/06 02:57:57;;;;;;;2.92;1.63;;;6.50;99.90;;;;;;5034816;28;20032;-78
2021/12/06 03:00:23;;;;;;;2.03;1.83;;;6.60;99.90;;;;;;5026175;28;20044;-78
2021/12/06 03:02:49;;;;;;;2.30;2.10;;;6.60;99.90;;;;;;5051653;28;20025;-78
2021/12/06 03:05:15;;;;;;;1.52;1.42;;;6.50;99.90;;;;;;5052028;28;20024;-77
2021/12/06 03:07:41;;;;;;;1.80;1.70;;;6.50;99.90;;;;;;5052464;28;20107;-78
2021/12/06 03:10:08;;;;;;;3.13;2.55;;;6.50;99.90;;;;;;5042941;28;20030;-78
2021/12/06 03:12:35;;;;;;;1.77;1.45;;;6.60;99.90;;;;;;5033497;28;20688;-78
2021/12/06 03:15:05;;;;;;;2.70;1.88;;;6.50;99.90;;;;;;5034089;28;20028;-77
2021/12/06 03:17:32;;;;;;;1.90;1.80;;;6.50;99.90;;;;;;5034719;28;20535;-78
2021/12/06 03:20:00;;;;;;;2.33;2.13;;;6.60;99.90;;;;;;5034586;28;20025;-78
2021/12/06 03:22:26;;;;;;;2.03;1.70;;;6.50;99.90;;;;;;5034441;28;20096;-78
2021/12/06 03:24:53;;;;;;;2.72;2.53;;;6.50;99.90;;;;;;5047853;28;20044;-79
2021/12/06 03:27:19;;;;;;;2.35;1.80;;;6.50;99.90;;;;;;5053935;28;20032;-78
2021/12/06 03:29:45;;;;;;;3.13;1.75;;;6.60;99.90;;;;;;5054017;28;20036;-78
2021/12/06 03:32:12;;;;;;;2.00;1.80;;;6.60;99.90;;;;;;5054011;28;20457;-78
2021/12/06 03:34:38;;;;;;;3.67;1.85;;;6.60;99.90;;;;;;5054131;28;20029;-78
2021/12/06 03:37:06;;;;;;;2.67;1.90;;;6.60;99.90;;;;;;5054127;28;20013;-78
2021/12/06 03:39:36;;;;;;;1.83;1.73;;;6.60;99.90;;;;;;5053013;28;20067;-78
2021/12/06 03:42:06;;;;;;;2.42;2.03;;;6.60;99.90;;;;;;5053511;28;20068;-78
2021/12/06 03:44:34;;;;;;;1.83;1.73;;;6.60;99.90;;;;;;5052968;28;20044;-78
2021/12/06 03:47:04;;;;;;;1.60;1.50;;;6.60;99.90;;;;;;5053668;28;20028;-78
2021/12/06 03:49:30;;;;;;;2.00;1.80;;;6.60;99.90;;;;;;5053862;28;20498;-78
2021/12/06 03:51:56;;;;;;;1.92;1.77;;;6.70;99.90;;;;;;5051403;28;20433;-78
2021/12/06 03:54:25;;;;;;;2.17;1.75;;;6.60;99.90;;;;;;5046662;28;20037;-78
2021/12/06 03:56:51;;;;;;;2.05;1.83;;;6.60;99.90;;;;;;5049056;28;20032;-78
2021/12/06 03:59:17;;;;;;;1.95;1.70;;;6.60;99.90;;;;;;5053563;28;20029;-78
2021/12/06 04:01:43;;;;;;;1.88;1.75;;;6.60;99.90;;;;;;5051294;28;20432;-78
2021/12/06 04:04:09;;;;;;;1.92;1.70;;;6.50;99.90;;;;;;5053291;28;20048;-78
2021/12/06 04:06:38;;;;;;;2.00;1.80;;;6.50;99.90;;;;;;5053255;28;20030;-78
2021/12/06 04:09:06;;;;;;;2.58;2.33;;;6.50;99.90;;;;;;5052990;28;20021;-79
2021/12/06 04:11:32;;;;;;;3.13;2.17;;;6.50;99.90;;;;;;5052573;28;20381;-78
2021/12/06 04:13:58;;;;;;;2.25;1.65;;;6.50;99.90;;;;;;5053246;28;20067;-78
2021/12/06 04:16:24;;;;;;;2.55;1.77;;;6.40;99.90;;;;;;5053058;28;20021;-78
2021/12/06 04:18:50;;;;;;;1.98;1.70;;;6.40;99.90;;;;;;5052883;28;20092;-79
2021/12/06 04:21:18;;;;;;;1.65;1.55;;;6.40;99.90;;;;;;5051082;28;20025;-78
2021/12/06 04:23:44;;;;;;;2.45;2.00;;;6.40;99.90;;;;;;5035131;28;20044;-78
2021/12/06 04:26:10;;;;;;;2.15;1.80;;;6.40;99.90;;;;;;5052938;28;20056;-78
2021/12/06 04:28:37;;;;;;;2.90;1.83;;;6.30;99.90;;;;;;5052549;28;20113;-78
2021/12/06 04:31:04;;;;;;;1.88;1.77;;;6.30;99.90;;;;;;5053051;28;20102;-78
2021/12/06 04:33:30;;;;;;;2.83;1.70;;;6.40;99.90;;;;;;5034864;28;20488;-78
2021/12/06 04:35:56;;;;;;;2.30;1.58;;;6.40;99.90;;;;;;5053105;28;20025;-78
2021/12/06 04:38:22;;;;;;;2.88;2.13;;;6.40;99.90;;;;;;5052819;28;20036;-78
2021/12/06 04:40:49;;;;;;;3.15;1.98;;;6.40;99.90;;;;;;5052705;28;20029;-78
2021/12/06 04:43:15;;;;;;;2.20;2.00;;;6.30;99.90;;;;;;5052320;28;20049;-78
2021/12/06 04:45:41;;;;;;;3.45;2.00;;;6.30;99.90;;;;;;5052098;28;20025;-78
2021/12/06 04:48:09;;;;;;;2.13;1.92;;;6.20;99.90;;;;;;5052867;28;20420;-78
2021/12/06 04:50:36;;;;;;;2.00;1.85;;;6.20;99.90;;;;;;5052815;28;20032;-78
2021/12/06 04:53:16;;;;;;;3.13;2.17;;;6.20;99.90;;;;;;5039829;28;20462;-78
2021/12/06 04:56:03;;;;;;;2.10;1.90;;;6.20;99.90;;;;;;5052955;28;20032;-78
2021/12/06 04:58:39;;;;;;;3.20;2.38;;;6.20;99.90;;;;;;5051950;28;20036;-78
2021/12/06 05:01:11;;;;;;;2.22;2.05;;;6.20;99.90;;;;;;5044384;28;20068;-78
2021/12/06 05:03:38;;;;;;;2.28;2.08;;;6.20;99.90;;;;;;5031994;28;20028;-78
2021/12/06 05:06:10;;;;;;;3.75;2.13;;;6.20;99.90;;;;;;5040306;28;20028;-78
2021/12/06 05:08:40;;;;;;;4.65;2.20;;;6.20;99.90;;;;;;5049224;28;20029;-78
2021/12/06 05:11:07;;;;;;;3.15;2.28;;;6.20;99.90;;;;;;5052671;28;20039;-78
2021/12/06 05:13:34;;;;;;;2.25;1.80;;;6.10;99.90;;;;;;5052543;28;20566;-78
2021/12/06 05:16:00;;;;;;;3.22;2.45;;;6.10;99.90;;;;;;5052380;28;20028;-78
2021/12/06 05:18:26;;;;;;;3.83;2.38;;;6.10;99.90;;;;;;5052500;28;20025;-78
2021/12/06 05:20:52;;;;;;;2.70;2.25;;;6.10;99.90;;;;;;5052690;28;20032;-78
2021/12/06 05:23:19;;;;;;;2.80;2.33;;;6.20;99.90;;;;;;5052491;28;20029;-78
2021/12/06 05:25:45;;;;;;;2.10;1.90;;;6.20;99.90;;;;;;5051862;28;20078;-79
2021/12/06 05:28:11;;;;;;;1.92;1.73;;;6.20;99.90;;;;;;5052123;28;20029;-78
2021/12/06 05:30:38;;;;;;;2.42;2.22;;;6.30;99.90;;;;;;5052563;28;20024;-79
2021/12/06 05:33:06;;;;;;;2.92;1.90;;;6.30;99.90;;;;;;5052426;28;20021;-78
2021/12/06 05:35:32;;;;;;;3.30;2.45;;;6.30;99.90;;;;;;5052525;28;20028;-78
2021/12/06 05:38:00;;;;;;;2.85;2.35;;;6.20;99.90;;;;;;5052069;28;20063;-78
2021/12/06 05:40:30;;;;;;;4.47;2.42;;;6.20;99.90;;;;;;5051842;28;20381;-78
2021/12/06 05:42:57;;;;;;;2.33;2.13;;;6.20;99.90;;;;;;5033854;28;20045;-79
2021/12/06 05:45:25;;;;;;;3.47;2.15;;;6.20;99.90;;;;;;5033992;28;20025;-78
2021/12/06 05:47:52;;;;;;;6.53;3.33;;;6.20;99.90;;;;;;5044376;28;20525;-78
2021/12/06 05:50:19;;;;;;;3.17;2.45;;;6.20;99.90;;;;;;5051989;28;20043;-78
2021/12/06 05:52:49;;;;;;;3.80;2.35;;;6.20;99.90;;;;;;5051653;28;20017;-78
2021/12/06 05:55:14;;;;;;;2.70;2.30;;;6.20;99.90;;;;;;5049333;28;20070;-78
2021/12/06 05:57:42;;;;;;;2.38;2.17;;;6.20;99.90;;;;;;5032033;28;20409;-78
2021/12/06 06:00:11;;;;;;;3.17;2.58;;;6.20;99.90;;;;;;5014441;28;20435;-78
2021/12/06 06:02:37;;;;;;;3.20;2.80;;;6.20;99.90;;;;;;5047318;28;20083;-78
2021/12/06 06:05:04;;;;;;;3.72;2.40;;;6.20;99.90;;;;;;5051999;28;20427;-77
2021/12/06 06:07:29;;;;;;;5.63;2.60;;;6.20;99.90;;;;;;5052211;28;20100;-79
2021/12/06 06:09:55;;;;;;;3.10;2.17;;;6.20;99.90;;;;;;5051626;28;20528;-78
2021/12/06 06:12:21;;;;;;;2.42;2.20;;;6.20;99.90;;;;;;5052085;28;20373;-79
2021/12/06 06:14:46;;;;;;;2.30;2.00;;;6.30;99.90;;;;;;5055076;28;20112;-78
2021/12/06 06:17:14;;;;;;;2.33;2.10;;;6.40;99.90;;;;;;5055653;28;20017;-78
2021/12/06 06:19:47;;;;;;;2.22;1.90;;;6.50;99.90;;;;;;5055221;28;20381;-77
2021/12/06 06:22:12;;;;;;;3.25;1.95;;;6.50;99.90;;;;;;5054877;28;20059;-79
2021/12/06 06:24:38;;;;;;;1.83;1.55;;;6.50;99.90;;;;;;5055184;28;20105;-78
2021/12/06 06:27:07;;;;;;;5.50;1.92;;;6.60;99.90;;;;;;5054319;28;20033;-77
2021/12/06 06:29:34;;;;;;;2.17;1.92;;;6.50;99.90;;;;;;5053855;28;20025;-77
2021/12/06 06:32:00;;;;;;;2.17;1.83;;;6.60;99.90;;;;;;5054586;28;20078;-77
2021/12/06 06:34:27;;;;;;;6.13;2.05;;;6.70;99.90;;;;;;5054815;28;20151;-77
2021/12/06 06:36:53;;;;;;;2.42;2.00;;;6.60;99.90;;;;;;5054737;28;20381;-77
2021/12/06 06:39:19;;;;;;;3.17;2.17;;;6.70;99.90;;;;;;5054585;28;20469;-76
2021/12/06 06:41:48;;;;;;;3.42;2.33;;;6.70;99.90;;;;;;5054820;28;20474;-76
2021/12/06 06:44:15;;;;;;;3.10;2.15;;;6.70;99.90;;;;;;5053817;28;20049;-76
2021/12/06 06:46:42;;;;;;;2.30;2.10;;;6.70;99.90;;;;;;5054856;28;20032;-76
2021/12/06 06:49:08;;;;;;;2.38;2.10;;;6.70;99.90;;;;;;5036143;28;20116;-77
2021/12/06 06:51:34;;;;;;;4.25;2.05;;;6.70;99.90;;;;;;5054644;28;20488;-78
2021/12/06 06:54:00;;;;;;;3.28;2.47;;;6.60;99.90;;;;;;5054867;28;20033;-77
2021/12/06 06:56:26;;;;;;;3.35;2.40;;;6.60;99.90;;;;;;5050609;28;20025;-77
2021/12/06 06:58:52;;;;;;;3.97;2.10;;;6.60;99.90;;;;;;5054438;28;20047;-77
2021/12/06 07:01:18;;;;;;;2.67;2.10;;;6.70;99.90;;;;;;5054632;28;20021;-77
2021/12/06 07:03:43;;;;;;;2.55;1.90;;;7.00;99.90;;;;;;5054114;28;20068;-77
2021/12/06 07:06:09;;;;;;;3.20;2.53;;;7.20;99.90;;;;;;5053890;28;20068;-77
2021/12/06 07:08:35;;;;;;;4.40;2.60;;;7.50;99.90;;;;;;5054270;28;20094;-78
2021/12/06 07:11:01;;;;;;;2.83;2.20;;;7.70;99.90;;;;;;5054566;28;20036;-77
2021/12/06 07:13:27;;;;;;;3.50;2.30;;;7.90;99.90;;;;;;5053707;28;20028;-78
2021/12/06 07:15:53;;;;;;;5.22;2.55;;;8.00;99.90;;;;;;5053057;28;20036;-77
2021/12/06 07:18:20;;;;;;;3.38;2.35;;;8.10;99.90;;;;;;5038568;28;20018;-78
2021/12/06 07:20:46;;;;;;;3.55;2.70;;;8.20;99.90;;;;;;5034241;28;20030;-77
2021/12/06 07:23:11;;;;;;;2.92;2.03;;;8.40;99.90;;;;;;5034741;28;21172;-77
2021/12/06 07:25:37;;;;;;;2.10;1.83;;;8.40;99.90;;;;;;5033806;28;20381;-78
2021/12/06 07:28:05;;;;;;;3.97;2.90;;;8.60;99.90;;;;;;5034542;28;20351;-79
2021/12/06 07:30:31;;;;;;;3.38;2.10;;;8.60;99.90;;;;;;5037828;28;20032;-77
2021/12/06 07:32:58;;;;;;;2.90;2.30;;;8.70;99.90;;;;;;5054499;28;20029;-78
2021/12/06 07:35:26;;;;;;;3.65;2.15;;;8.60;99.90;;;;;;5036493;28;20104;-77
2021/12/06 07:37:52;;;;;;;4.55;2.60;;;8.50;99.90;;;;;;5034843;28;20467;-77
2021/12/06 07:40:18;;;;;;;2.35;1.88;;;8.50;99.90;;;;;;5052337;28;20068;-77
2021/12/06 07:42:45;;;;;;;3.25;2.35;;;8.70;99.90;;;;;;5037629;28;20041;-77
2021/12/06 07:45:12;;;;;;;3.90;2.60;;;9.00;99.90;;;;;;5054392;28;20040;-77
2021/12/06 07:47:38;;;;;;;6.10;2.80;;;9.20;99.90;;;;;;5052147;28;20029;-77
2021/12/06 07:50:06;;;;;;;4.40;3.08;;;9.20;99.90;;;;;;5034809;28;20021;-77
2021/12/06 07:52:32;;;;;;;3.22;2.33;;;9.40;99.90;;;;;;5035319;28;20021;-78
2021/12/06 07:54:59;;;;;;;3.83;2.33;;;9.70;99.90;;;;;;5052495;28;20039;-78
2021/12/06 07:57:27;;;;;;;6.25;2.00;;;10.10;99.90;;;;;;5050974;28;20409;-77
2021/12/06 07:59:54;;;;;;;4.80;2.10;;;10.30;99.90;;;;;;5053205;28;20028;-78
2021/12/06 08:02:20;;;;;;;3.50;1.92;;;10.80;99.90;;;;;;5053668;28;20017;-78
2021/12/06 08:04:48;;;;;;;2.63;1.90;;;11.00;99.90;;;;;;5053562;28;20091;-78
2021/12/06 08:07:15;;;;;;;4.63;2.47;;;11.50;99.90;;;;;;5052864;28;20090;-78
2021/12/06 08:09:40;;;;;;;5.47;3.67;;;12.30;99.90;;;;;;5053503;28;20025;-78
2021/12/06 08:12:06;;;;;;;3.20;1.80;;;12.20;99.90;;;;;;5053423;28;20538;-78
2021/12/06 08:14:32;;;;;;;3.50;1.58;;;12.80;99.90;;;;;;5053311;28;20029;-78
2021/12/06 08:16:58;;;;;;;3.42;1.90;;;12.50;99.90;;;;;;5052504;28;20381;-79
2021/12/06 08:19:24;;;;;;;3.03;1.42;;;12.90;99.90;;;;;;5051979;28;20099;-78
2021/12/06 08:21:49;;;;;;;1.55;1.40;;;12.70;99.90;;;;;;5052196;28;20622;-78
2021/12/06 08:24:16;;;;;;;3.47;1.52;;;12.30;99.90;;;;;;5052534;28;20045;-78
2021/12/06 08:26:44;;;;;;;3.72;2.15;;;12.00;99.90;;;;;;5052372;28;20081;-78
2021/12/06 08:29:13;;;;;;;7.60;2.28;;;11.80;99.90;;;;;;5052937;28;20087;-77
2021/12/06 08:31:41;;;;;;;6.60;2.00;;;11.70;99.90;;;;;;5052317;28;20021;-78
2021/12/06 08:34:07;;;;;;;2.90;1.75;;;11.70;99.90;;;;;;5052793;28;20024;-79
2021/12/06 08:36:33;;;;;;;2.70;1.27;;;11.90;99.90;;;;;;5052183;28;20025;-79
2021/12/06 08:38:59;;;;;;;3.10;1.45;;;12.10;99.90;;;;;;5034786;28;20025;-78
2021/12/06 08:41:29;;;;;;;3.00;1.45;;;12.70;99.90;;;;;;5034924;28;20112;-78
2021/12/06 08:43:56;;;;;;;4.07;1.10;;;13.30;99.90;;;;;;5052882;28;20041;-78
2021/12/06 08:46:25;;;;;;;2.13;1.30;;;13.80;99.90;;;;;;5052602;28;20538;-79
2021/12/06 08:48:51;;;;;;;6.63;1.40;;;14.10;99.90;;;;;;5052320;28;20036;-78
2021/12/06 08:51:25;;;;;;;2.17;1.48;;;13.90;99.90;;;;;;5052991;28;20051;-78
2021/12/06 08:53:52;;;;;;;3.80;2.33;;;14.00;99.90;;;;;;5052388;28;20021;-79
2021/12/06 08:56:19;;;;;;;6.55;3.30;;;14.80;99.90;;;;;;5040841;28;20385;-79
2021/12/06 08:58:45;;;;;;;6.28;3.78;;;15.80;99.90;;;;;;5021534;28;20031;-78
2021/12/06 09:01:12;;;;;;;1.70;1.40;;;16.10;99.90;;;;;;5034690;28;20079;-79
2021/12/06 09:03:38;;;;;;;2.50;1.45;;;16.50;99.90;;;;;;5052388;28;20037;-79
2021/12/06 09:06:07;;;;;;;3.78;1.75;;;16.60;99.90;;;;;;5051159;28;20044;-79
2021/12/06 09:08:34;;;;;;;6.60;1.20;;;17.00;99.90;;;;;;5046790;28;20033;-79
2021/12/06 09:11:00;;;;;;;1.80;1.23;;;17.70;99.60;;;;;;5052414;28;20025;-79
2021/12/06 09:13:28;;;;;;;5.65;1.48;;;18.10;98.20;;;;;;5052278;28;20559;-80
2021/12/06 09:15:56;;;;;;;2.08;1.10;;;18.20;98.10;;;;;;5051837;28;20354;-79
2021/12/06 09:18:22;;;;;;;2.70;1.35;;;18.50;96.90;;;;;;5033955;28;20103;-79
2021/12/06 09:20:50;;;;;;;1.30;1.15;;;17.90;97.00;;;;;;5051073;28;20025;-79
2021/12/06 09:23:16;;;;;;;2.05;1.30;;;18.40;96.10;;;;;;5043880;28;20024;-79
2021/12/06 09:25:45;;;;;;;1.88;0.90;;;17.90;95.80;;;;;;5051236;28;20021;-79
2021/12/06 09:28:13;;;;;;;1.27;0.85;;;16.90;96.90;;;;;;5051212;28;20107;-78
2021/12/06 09:30:39;;;;;;;6.97;1.55;;;16.80;96.50;;;;;;5051546;28;20108;-78
2021/12/06 09:33:09;;;;;;;2.28;1.23;;;16.10;97.30;;;;;;5051508;28;20470;-77
2021/12/06 09:35:37;;;;;;;4.70;1.10;;;15.30;98.10;;;;;;5051281;28;20389;-77
2021/12/06 09:38:05;;;;;;;1.40;1.13;;;15.10;98.30;;;;;;5051065;28;20048;-78
2021/12/06 09:40:33;;;;;;;14.40;1.38;;;15.10;98.90;;;;;;5050940;28;20104;-78
2021/12/06 09:43:00;;;;;;;2.50;1.10;;;14.30;99.50;;;;;;5051406;28;20041;-78
2021/12/06 09:45:33;;;;;;;2.25;1.42;;;14.30;99.50;;;;;;5033318;28;20044;-78
2021/12/06 09:48:02;;;;;;;2.08;1.08;;;14.50;99.40;;;;;;5051892;28;20473;-78
2021/12/06 09:50:31;;;;;;;1.83;1.20;;;14.20;99.40;;;;;;5055229;28;20116;-77
2021/12/06 09:53:00;;;;;;;2.90;1.10;;;13.80;99.50;;;;;;5055517;28;20349;-78
2021/12/06 09:55:29;;;;;;;1.65;1.25;;;13.60;99.90;;;;;;5054107;28;20096;-78
2021/12/06 09:57:56;;;;;;;1.75;1.10;;;13.50;99.90;;;;;;5054944;28;20032;-78
2021/12/06 10:00:25;;;;;;;2.97;1.25;;;13.60;99.90;;;;;;5055231;28;20095;-78
2021/12/06 10:02:53;;;;;;;2.92;1.73;;;13.70;99.90;;;;;;5054944;28;20047;-77
2021/12/06 10:05:19;;;;;;;1.98;1.25;;;13.40;99.90;;;;;;5054386;28;20037;-77
2021/12/06 10:07:46;;;;;;;2.13;1.40;;;13.20;99.90;;;;;;5054794;28;20025;-78
2021/12/06 10:10:13;;;;;;;2.42;1.40;;;13.00;99.90;;;;;;5054038;28;20104;-77
2021/12/06 10:12:42;;;;;;;2.55;1.30;;;13.10;99.90;;;;;;5052572;28;20021;-79
2021/12/06 10:15:08;;;;;;;2.83;1.30;;;13.20;99.90;;;;;;5054206;28;20043;-78
2021/12/06 10:17:34;;;;;;;1.35;1.20;;;13.30;99.90;;;;;;5052979;28;20029;-77
2021/12/06 10:20:00;;;;;;;3.72;1.60;;;13.30;99.90;;;;;;5054557;28;20484;-78
2021/12/06 10:22:27;;;;;;;6.05;2.72;;;13.50;99.60;;;;;;5054485;28;20540;-78
2021/12/06 10:24:58;;;;;;;2.42;1.63;;;13.20;99.90;;;;;;5053581;28;20043;-77
2021/12/06 10:27:25;;;;;;;3.92;2.10;;;13.40;99.90;;;;;;5054331;28;20013;-78
2021/12/06 10:30:00;;;;;;;3.30;1.50;;;13.40;99.90;;;;;;5054130;28;20035;-78
2021/12/06 10:32:29;;;;;;;4.03;2.17;;;13.80;99.60;;;;;;5053798;28;20385;-77
2021/12/06 10:35:01;;;;;;;2.65;2.20;;;13.80;99.20;;;;;;5036206;28;20013;-79
2021/12/06 10:37:45;;;;;;;2.10;1.30;;;13.90;98.90;;;;;;5054056;28;20031;-78
2021/12/06 10:40:20;;;;;;;3.53;2.17;;;14.40;98.80;;;;;;5052209;28;20100;-77
2021/12/06 10:42:48;;;;;;;2.67;1.77;;;14.20;98.80;;;;;;5049528;28;20037;-77
2021/12/06 10:45:24;;;;;;;5.78;1.42;;;14.30;98.40;;;;;;5053908;28;20493;-78
2021/12/06 10:48:07;;;;;;;1.40;0.98;;;14.40;97.70;;;;;;5036654;28;20021;-78
2021/12/06 10:50:33;;;;;;;3.58;1.83;;;14.80;97.70;;;;;;5053328;28;20028;-77
2021/12/06 10:53:00;;;;;;;1.90;1.60;;;14.40;98.10;;;;;;5036634;28;20562;-77
2021/12/06 10:55:30;;;;;;;5.40;1.55;;;14.60;97.30;;;;;;5054531;28;20017;-77
2021/12/06 10:58:04;;;;;;;2.28;1.42;;;14.10;97.50;;;;;;5054219;28;20029;-78
2021/12/06 11:00:44;;;;;;;2.42;1.30;;;14.50;97.80;;;;;;5052837;28;20024;-78
2021/12/06 11:03:22;;;;;;;3.55;1.67;;;15.00;96.70;;;;;;5054104;28;20082;-78
2021/12/06 11:06:02;;;;;;;3.97;2.17;;;15.50;96.30;;;;;;5054027;28;20076;-78
2021/12/06 11:08:29;;;;;;;3.28;1.73;;;15.30;95.40;;;;;;5036291;28;20151;-78
2021/12/06 11:11:00;;;;;;;2.35;1.30;;;15.40;95.30;;;;;;5053242;28;20033;-78
2021/12/06 11:13:30;;;;;;;2.03;1.00;;;15.80;95.30;;;;;;5036224;28;20112;-78
2021/12/06 11:16:08;;;;;;;2.17;1.50;;;16.00;95.60;;;;;;5053720;28;20485;-77
2021/12/06 11:18:45;;;;;;;3.35;2.33;;;15.50;95.80;;;;;;5054081;28;20102;-78
2021/12/06 11:21:44;;;;;;;1.58;0.98;;;16.00;95.00;;;;;;5048271;28;20029;-77
2021/12/06 11:24:30;;;;;;;2.38;1.23;;;16.00;94.50;;;;;;5047047;28;20126;-78
2021/12/06 11:27:08;;;;;;;5.22;1.48;;;14.80;95.80;;;;;;5053840;28;20017;-78
2021/12/06 11:29:47;;;;;;;1.92;1.63;;;14.80;96.10;;;;;;5051953;28;20569;-79
2021/12/06 11:32:16;;;;;;;2.10;1.10;;;15.40;94.90;;;;;;5034894;28;20474;-78
2021/12/06 11:34:58;;;;;;;5.60;1.80;;;15.50;94.90;;;;;;5050017;28;20493;-77
2021/12/06 11:37:32;;;;;;;2.65;1.52;;;15.40;94.00;;;;;;5052341;28;20082;-77
2021/12/06 11:40:26;;;;;;;7.07;1.33;;;14.60;94.90;;;;;;5052216;28;20040;-77
2021/12/06 11:43:13;;;;;;;3.45;1.45;;;13.70;95.80;;;;;;5052862;28;20041;-77
2021/12/06 11:45:40;;;;;;;2.60;1.40;;;13.50;96.00;;;;;;5034208;28;20047;-77
2021/12/06 11:48:08;;;;;;;2.10;1.50;;;13.70;96.10;;;;;;5034111;28;20473;-77
2021/12/06 11:50:38;;;;;;;2.72;1.80;;;13.60;95.90;;;;;;5051323;28;20412;-76
2021/12/06 11:53:06;;;;;;;1.63;1.30;;;12.70;96.50;;;;;;5051418;28;20064;-76
2021/12/06 11:55:32;;;;;;;1.90;1.60;;;12.00;97.80;;;;;;5050464;28;20087;-77
2021/12/06 11:57:58;;;;;;;4.75;1.80;;;11.60;98.80;;;;;;5051679;28;20175;-77
2021/12/06 12:00:25;;;;;;;1.85;1.55;;;11.50;98.80;;;;;;5034298;28;20444;-76
2021/12/06 12:02:55;;;;;;;2.13;1.65;;;11.10;99.10;;;;;;5033653;28;20056;-76
2021/12/06 12:05:37;;;;;;;3.92;2.05;;;10.70;99.30;;;;;;5033371;28;20534;-76
2021/12/06 12:08:08;;;;;;;4.88;2.33;;;10.70;99.90;;;;;;5051241;28;20029;-76
2021/12/06 12:10:42;;;;;;;2.92;1.98;;;10.60;99.90;;;;;;5034247;28;20029;-76
2021/12/06 12:13:10;;;;;;;2.15;1.52;;;10.70;99.90;;;;;;5034167;28;20480;-76
2021/12/06 12:15:37;;;;;;;4.88;1.85;;;10.60;99.90;;;;;;5052041;28;20046;-76
2021/12/06 12:18:03;;;;;;;2.80;1.40;;;10.40;99.60;;;;;;5052036;28;20083;-76
2021/12/06 12:20:30;;;;;;;8.18;3.80;;;10.30;99.90;;;;;;5050790;28;20052;-76
2021/12/06 12:23:02;;;;;;;9.50;5.00;;;10.40;99.90;;;;;;5033285;28;20103;-76
2021/12/06 12:25:33;;;;;;;4.32;2.30;;;10.50;99.90;;;;;;5051608;28;20029;-76
2021/12/06 12:30:34;;;;;;;3.40;2.10;;;10.30;99.90;;;;;;5050226;28;20509;-76
2021/12/06 12:33:04;;;;;;;6.93;2.30;;;10.30;99.90;;;;;;5050973;28;20039;-76
2021/12/06 12:35:31;;;;;;;6.38;3.60;;;10.30;99.90;;;;;;5048167;28;20013;-76
2021/12/06 12:37:59;;;;;;;4.82;2.78;;;10.30;99.90;;;;;;5047678;28;20063;-75
2021/12/06 12:40:36;;;;;;;6.50;3.60;;;10.20;99.90;;;;;;5041661;28;20063;-75
2021/12/06 12:43:05;;;;;;;3.30;2.40;;;10.10;99.90;;;;;;5041382;28;20091;-75
2021/12/06 12:45:59;;;;;;;3.58;2.05;;;10.00;99.90;;;;;;5039901;28;20033;-77
2021/12/06 12:48:27;;;;;;;4.50;2.78;;;9.90;99.90;;;;;;5032943;28;20034;-77
2021/12/06 12:51:05;;;;;;;3.63;2.45;;;10.00;99.90;;;;;;5016190;28;20106;-76
2021/12/06 12:54:07;;;;;;;2.65;2.30;;;9.90;99.90;;;;;;5035218;28;20025;-76
2021/12/06 12:56:57;;;;;;;3.60;2.22;;;9.80;99.90;;;;;;5033914;28;20440;-77
2021/12/06 12:59:42;;;;;;;4.80;2.38;;;9.80;99.90;;;;;;5034924;28;20029;-75
2021/12/06 13:02:11;;;;;;;2.28;1.80;;;9.80;99.90;;;;;;5017980;28;20090;-76
2021/12/06 13:05:10;;;;;;;2.72;2.08;;;9.70;99.90;;;;;;5032074;28;20136;-76
2021/12/06 13:07:39;;;;;;;3.25;2.45;;;9.70;99.90;;;;;;5013699;28;20049;-77
2021/12/06 13:10:23;;;;;;;9.85;2.17;;;9.60;99.90;;;;;;5039848;28;20025;-76
2021/12/06 13:13:17;;;;;;;3.60;2.05;;;9.60;99.90;;;;;;5047953;28;20033;-76
2021/12/06 13:15:56;;;;;;;4.97;2.28;;;9.50;99.90;;;;;;5043997;28;20147;-77
2021/12/06 13:18:37;;;;;;;3.45;2.08;;;9.50;99.90;;;;;;5030613;28;20012;-76
2021/12/06 13:21:33;;;;;;;2.65;2.13;;;9.50;99.90;;;;;;5048212;28;20158;-76